sensor_id;sensor_type;location;lat;lon;timestamp;P1;durP1;ratioP1;P2;durP2;ratioP2
13349;SDS011;6744;53.190;6.576;2023-11-19T00:01:34;22.37;;;13.00;;
13349;SDS011;6744;53.190;6.576;2023-11-19T00:03:59;22.37;;;14.40;;
13349;SDS011;6744;53.190;6.576;2023-11-19T00:06:24;25.00;;;15.33;;
13349;SDS011;6744;53.190;6.576;2023-11-19T00:08:50;30.07;;;16.70;;
13349;SDS011;6744;53.190;6.576;2023-11-19T00:11:16;18.90;;;12.67;;
13349;SDS011;6744;53.190;6.576;2023-11-19T00:13:41;21.40;;;13.80;;
13349;SDS011;6744;53.190;6.576;2023-11-19T00:16:07;25.97;;;14.40;;
13349;SDS011;6744;53.190;6.576;2023-11-19T00:18:34;25.13;;;14.33;;
13349;SDS011;6744;53.190;6.576;2023-11-19T00:21:00;22.00;;;12.77;;
13349;SDS011;6744;53.190;6.576;2023-11-19T00:23:27;25.67;;;13.13;;
13349;SDS011;6744;53.190;6.576;2023-11-19T00:25:52;20.40;;;10.80;;
13349;SDS011;6744;53.190;6.576;2023-11-19T00:28:17;31.07;;;14.87;;
13349;SDS011;6744;53.190;6.576;2023-11-19T00:30:43;28.07;;;12.87;;
13349;SDS011;6744;53.190;6.576;2023-11-19T00:33:08;21.53;;;9.77;;
13349;SDS011;6744;53.190;6.576;2023-11-19T00:35:33;19.37;;;9.13;;
13349;SDS011;6744;53.190;6.576;2023-11-19T00:37:59;21.20;;;10.63;;
13349;SDS011;6744;53.190;6.576;2023-11-19T00:40:25;20.73;;;9.00;;
13349;SDS011;6744;53.190;6.576;2023-11-19T00:42:50;21.03;;;8.83;;
13349;SDS011;6744;53.190;6.576;2023-11-19T00:45:16;25.83;;;10.70;;
13349;SDS011;6744;53.190;6.576;2023-11-19T00:47:41;21.60;;;8.53;;
13349;SDS011;6744;53.190;6.576;2023-11-19T00:50:07;24.70;;;9.47;;
13349;SDS011;6744;53.190;6.576;2023-11-19T00:52:36;13.50;;;6.47;;
13349;SDS011;6744;53.190;6.576;2023-11-19T00:55:02;16.37;;;6.30;;
13349;SDS011;6744;53.190;6.576;2023-11-19T00:57:27;17.70;;;6.10;;
13349;SDS011;6744;53.190;6.576;2023-11-19T00:59:53;17.67;;;6.70;;
13349;SDS011;6744;53.190;6.576;2023-11-19T01:02:18;35.73;;;8.63;;
13349;SDS011;6744;53.190;6.576;2023-11-19T01:04:43;21.50;;;7.60;;
13349;SDS011;6744;53.190;6.576;2023-11-19T01:07:10;19.53;;;5.90;;
13349;SDS011;6744;53.190;6.576;2023-11-19T01:09:38;20.87;;;6.50;;
13349;SDS011;6744;53.190;6.576;2023-11-19T01:12:04;14.83;;;4.70;;
13349;SDS011;6744;53.190;6.576;2023-11-19T01:14:29;27.27;;;5.87;;
13349;SDS011;6744;53.190;6.576;2023-11-19T01:16:55;24.33;;;6.27;;
13349;SDS011;6744;53.190;6.576;2023-11-19T01:19:21;28.73;;;7.03;;
13349;SDS011;6744;53.190;6.576;2023-11-19T01:21:47;19.97;;;5.43;;
13349;SDS011;6744;53.190;6.576;2023-11-19T01:24:12;15.80;;;4.13;;
13349;SDS011;6744;53.190;6.576;2023-11-19T01:26:39;21.67;;;5.53;;
13349;SDS011;6744;53.190;6.576;2023-11-19T01:29:10;19.60;;;5.13;;
13349;SDS011;6744;53.190;6.576;2023-11-19T01:31:36;19.90;;;4.37;;
13349;SDS011;6744;53.190;6.576;2023-11-19T01:34:02;21.00;;;4.40;;
13349;SDS011;6744;53.190;6.576;2023-11-19T01:36:27;18.77;;;4.23;;
13349;SDS011;6744;53.190;6.576;2023-11-19T01:38:53;27.13;;;4.87;;
13349;SDS011;6744;53.190;6.576;2023-11-19T01:41:18;23.70;;;5.63;;
13349;SDS011;6744;53.190;6.576;2023-11-19T01:43:44;20.27;;;4.73;;
13349;SDS011;6744;53.190;6.576;2023-11-19T01:46:12;24.60;;;5.10;;
13349;SDS011;6744;53.190;6.576;2023-11-19T01:48:39;17.90;;;4.27;;
13349;SDS011;6744;53.190;6.576;2023-11-19T01:51:06;18.47;;;4.20;;
13349;SDS011;6744;53.190;6.576;2023-11-19T01:53:32;14.93;;;4.53;;
13349;SDS011;6744;53.190;6.576;2023-11-19T01:55:57;16.67;;;4.33;;
13349;SDS011;6744;53.190;6.576;2023-11-19T01:58:23;22.47;;;4.80;;
13349;SDS011;6744;53.190;6.576;2023-11-19T02:00:49;23.90;;;4.93;;
13349;SDS011;6744;53.190;6.576;2023-11-19T02:03:14;27.37;;;5.67;;
13349;SDS011;6744;53.190;6.576;2023-11-19T02:05:40;19.67;;;4.80;;
13349;SDS011;6744;53.190;6.576;2023-11-19T02:08:05;20.43;;;4.73;;
13349;SDS011;6744;53.190;6.576;2023-11-19T02:10:31;17.20;;;3.90;;
13349;SDS011;6744;53.190;6.576;2023-11-19T02:12:57;19.30;;;4.20;;
13349;SDS011;6744;53.190;6.576;2023-11-19T02:15:23;21.17;;;4.70;;
13349;SDS011;6744;53.190;6.576;2023-11-19T02:17:49;27.93;;;4.97;;
13349;SDS011;6744;53.190;6.576;2023-11-19T02:20:15;30.57;;;5.07;;
13349;SDS011;6744;53.190;6.576;2023-11-19T02:22:40;21.43;;;4.93;;
13349;SDS011;6744;53.190;6.576;2023-11-19T02:25:12;17.43;;;3.63;;
13349;SDS011;6744;53.190;6.576;2023-11-19T02:30:26;20.47;;;4.73;;
13349;SDS011;6744;53.190;6.576;2023-11-19T02:32:53;21.13;;;5.00;;
13349;SDS011;6744;53.190;6.576;2023-11-19T02:35:22;26.93;;;5.50;;
13349;SDS011;6744;53.190;6.576;2023-11-19T02:37:48;16.87;;;3.90;;
13349;SDS011;6744;53.190;6.576;2023-11-19T02:40:14;22.53;;;4.90;;
13349;SDS011;6744;53.190;6.576;2023-11-19T02:42:39;17.60;;;4.37;;
13349;SDS011;6744;53.190;6.576;2023-11-19T02:45:05;17.37;;;4.00;;
13349;SDS011;6744;53.190;6.576;2023-11-19T02:47:32;19.03;;;4.30;;
13349;SDS011;6744;53.190;6.576;2023-11-19T02:49:58;23.10;;;4.80;;
13349;SDS011;6744;53.190;6.576;2023-11-19T02:52:23;22.83;;;4.07;;
13349;SDS011;6744;53.190;6.576;2023-11-19T02:54:50;18.87;;;3.90;;
13349;SDS011;6744;53.190;6.576;2023-11-19T02:57:15;25.37;;;5.27;;
13349;SDS011;6744;53.190;6.576;2023-11-19T02:59:44;22.27;;;4.43;;
13349;SDS011;6744;53.190;6.576;2023-11-19T03:02:09;24.30;;;4.37;;
13349;SDS011;6744;53.190;6.576;2023-11-19T03:04:36;23.53;;;4.70;;
13349;SDS011;6744;53.190;6.576;2023-11-19T03:07:04;25.87;;;4.00;;
13349;SDS011;6744;53.190;6.576;2023-11-19T03:09:30;25.67;;;5.00;;
13349;SDS011;6744;53.190;6.576;2023-11-19T03:11:55;18.13;;;4.53;;
13349;SDS011;6744;53.190;6.576;2023-11-19T03:14:21;17.07;;;4.10;;
13349;SDS011;6744;53.190;6.576;2023-11-19T03:16:47;21.40;;;4.30;;
13349;SDS011;6744;53.190;6.576;2023-11-19T03:19:13;19.40;;;4.17;;
13349;SDS011;6744;53.190;6.576;2023-11-19T03:21:38;17.57;;;3.70;;
13349;SDS011;6744;53.190;6.576;2023-11-19T03:24:04;14.80;;;3.87;;
13349;SDS011;6744;53.190;6.576;2023-11-19T03:26:29;16.23;;;4.00;;
13349;SDS011;6744;53.190;6.576;2023-11-19T03:28:55;19.63;;;4.33;;
13349;SDS011;6744;53.190;6.576;2023-11-19T03:31:22;22.23;;;4.47;;
13349;SDS011;6744;53.190;6.576;2023-11-19T03:33:47;21.57;;;4.87;;
13349;SDS011;6744;53.190;6.576;2023-11-19T03:36:12;17.10;;;3.87;;
13349;SDS011;6744;53.190;6.576;2023-11-19T03:38:38;23.20;;;5.07;;
13349;SDS011;6744;53.190;6.576;2023-11-19T03:41:10;15.93;;;3.93;;
13349;SDS011;6744;53.190;6.576;2023-11-19T03:43:39;16.43;;;3.97;;
13349;SDS011;6744;53.190;6.576;2023-11-19T03:46:05;20.00;;;4.73;;
13349;SDS011;6744;53.190;6.576;2023-11-19T03:48:43;19.83;;;4.37;;
13349;SDS011;6744;53.190;6.576;2023-11-19T03:51:09;14.40;;;3.53;;
13349;SDS011;6744;53.190;6.576;2023-11-19T03:53:34;20.73;;;4.07;;
13349;SDS011;6744;53.190;6.576;2023-11-19T03:56:00;17.60;;;4.80;;
13349;SDS011;6744;53.190;6.576;2023-11-19T03:58:26;21.80;;;4.53;;
13349;SDS011;6744;53.190;6.576;2023-11-19T04:00:51;19.50;;;4.33;;
13349;SDS011;6744;53.190;6.576;2023-11-19T04:03:17;18.83;;;4.20;;
13349;SDS011;6744;53.190;6.576;2023-11-19T04:05:44;19.67;;;4.53;;
13349;SDS011;6744;53.190;6.576;2023-11-19T04:08:10;19.27;;;4.37;;
13349;SDS011;6744;53.190;6.576;2023-11-19T04:10:35;22.00;;;3.93;;
13349;SDS011;6744;53.190;6.576;2023-11-19T04:13:00;21.07;;;4.80;;
13349;SDS011;6744;53.190;6.576;2023-11-19T04:15:26;19.87;;;4.13;;
13349;SDS011;6744;53.190;6.576;2023-11-19T04:17:51;19.30;;;4.23;;
13349;SDS011;6744;53.190;6.576;2023-11-19T04:20:16;16.97;;;4.10;;
13349;SDS011;6744;53.190;6.576;2023-11-19T04:22:42;22.60;;;4.37;;
13349;SDS011;6744;53.190;6.576;2023-11-19T04:25:07;17.93;;;4.67;;
13349;SDS011;6744;53.190;6.576;2023-11-19T04:27:33;23.30;;;4.23;;
13349;SDS011;6744;53.190;6.576;2023-11-19T04:29:58;20.67;;;5.20;;
13349;SDS011;6744;53.190;6.576;2023-11-19T04:32:26;21.53;;;4.80;;
13349;SDS011;6744;53.190;6.576;2023-11-19T04:34:52;16.00;;;4.90;;
13349;SDS011;6744;53.190;6.576;2023-11-19T04:37:17;18.60;;;3.97;;
13349;SDS011;6744;53.190;6.576;2023-11-19T04:39:44;23.10;;;4.70;;
13349;SDS011;6744;53.190;6.576;2023-11-19T04:42:11;17.50;;;3.60;;
13349;SDS011;6744;53.190;6.576;2023-11-19T04:44:36;18.43;;;3.63;;
13349;SDS011;6744;53.190;6.576;2023-11-19T04:47:01;16.57;;;4.20;;
13349;SDS011;6744;53.190;6.576;2023-11-19T04:49:27;27.40;;;4.97;;
13349;SDS011;6744;53.190;6.576;2023-11-19T04:51:52;20.20;;;4.20;;
13349;SDS011;6744;53.190;6.576;2023-11-19T04:54:18;25.60;;;5.17;;
13349;SDS011;6744;53.190;6.576;2023-11-19T04:56:46;25.43;;;5.03;;
13349;SDS011;6744;53.190;6.576;2023-11-19T04:59:12;22.40;;;4.53;;
13349;SDS011;6744;53.190;6.576;2023-11-19T05:01:37;24.50;;;4.77;;
13349;SDS011;6744;53.190;6.576;2023-11-19T05:04:03;24.60;;;5.43;;
13349;SDS011;6744;53.190;6.576;2023-11-19T05:06:29;22.00;;;4.50;;
13349;SDS011;6744;53.190;6.576;2023-11-19T05:08:55;21.60;;;4.87;;
13349;SDS011;6744;53.190;6.576;2023-11-19T05:11:26;25.77;;;5.70;;
13349;SDS011;6744;53.190;6.576;2023-11-19T05:13:53;19.83;;;4.37;;
13349;SDS011;6744;53.190;6.576;2023-11-19T05:16:18;23.80;;;4.57;;
13349;SDS011;6744;53.190;6.576;2023-11-19T05:18:44;23.67;;;5.30;;
13349;SDS011;6744;53.190;6.576;2023-11-19T05:21:10;24.23;;;4.97;;
13349;SDS011;6744;53.190;6.576;2023-11-19T05:23:35;23.03;;;4.73;;
13349;SDS011;6744;53.190;6.576;2023-11-19T05:26:01;23.10;;;4.77;;
13349;SDS011;6744;53.190;6.576;2023-11-19T05:28:26;19.20;;;5.47;;
13349;SDS011;6744;53.190;6.576;2023-11-19T05:30:52;28.17;;;5.63;;
13349;SDS011;6744;53.190;6.576;2023-11-19T05:33:17;18.80;;;4.53;;
13349;SDS011;6744;53.190;6.576;2023-11-19T05:35:42;24.03;;;4.53;;
13349;SDS011;6744;53.190;6.576;2023-11-19T05:38:08;20.83;;;4.80;;
13349;SDS011;6744;53.190;6.576;2023-11-19T05:40:34;22.53;;;5.30;;
13349;SDS011;6744;53.190;6.576;2023-11-19T05:43:00;22.37;;;4.43;;
13349;SDS011;6744;53.190;6.576;2023-11-19T05:45:25;22.33;;;4.67;;
13349;SDS011;6744;53.190;6.576;2023-11-19T05:47:51;18.37;;;4.67;;
13349;SDS011;6744;53.190;6.576;2023-11-19T05:50:17;27.50;;;5.33;;
13349;SDS011;6744;53.190;6.576;2023-11-19T05:52:42;24.23;;;4.97;;
13349;SDS011;6744;53.190;6.576;2023-11-19T05:55:08;25.40;;;5.00;;
13349;SDS011;6744;53.190;6.576;2023-11-19T05:57:35;18.33;;;4.57;;
13349;SDS011;6744;53.190;6.576;2023-11-19T06:00:01;22.70;;;4.10;;
13349;SDS011;6744;53.190;6.576;2023-11-19T06:02:28;22.17;;;5.03;;
13349;SDS011;6744;53.190;6.576;2023-11-19T06:04:53;23.50;;;4.83;;
13349;SDS011;6744;53.190;6.576;2023-11-19T06:07:19;27.57;;;5.90;;
13349;SDS011;6744;53.190;6.576;2023-11-19T06:09:45;25.07;;;4.67;;
13349;SDS011;6744;53.190;6.576;2023-11-19T06:12:10;24.70;;;5.20;;
13349;SDS011;6744;53.190;6.576;2023-11-19T06:14:35;25.03;;;5.07;;
13349;SDS011;6744;53.190;6.576;2023-11-19T06:17:01;24.50;;;5.00;;
13349;SDS011;6744;53.190;6.576;2023-11-19T06:19:26;27.13;;;5.47;;
13349;SDS011;6744;53.190;6.576;2023-11-19T06:21:51;25.30;;;4.77;;
13349;SDS011;6744;53.190;6.576;2023-11-19T06:24:17;24.80;;;5.20;;
13349;SDS011;6744;53.190;6.576;2023-11-19T06:26:43;21.67;;;5.43;;
13349;SDS011;6744;53.190;6.576;2023-11-19T06:29:08;23.23;;;4.97;;
13349;SDS011;6744;53.190;6.576;2023-11-19T06:31:34;22.33;;;4.97;;
13349;SDS011;6744;53.190;6.576;2023-11-19T06:33:59;25.87;;;5.10;;
13349;SDS011;6744;53.190;6.576;2023-11-19T06:36:24;25.43;;;5.17;;
13349;SDS011;6744;53.190;6.576;2023-11-19T06:38:50;22.77;;;5.13;;
13349;SDS011;6744;53.190;6.576;2023-11-19T06:41:15;21.17;;;4.07;;
13349;SDS011;6744;53.190;6.576;2023-11-19T06:43:41;23.23;;;5.17;;
13349;SDS011;6744;53.190;6.576;2023-11-19T06:46:13;29.17;;;5.10;;
13349;SDS011;6744;53.190;6.576;2023-11-19T06:48:39;21.33;;;4.60;;
13349;SDS011;6744;53.190;6.576;2023-11-19T06:51:05;23.30;;;4.47;;
13349;SDS011;6744;53.190;6.576;2023-11-19T06:53:30;25.87;;;4.73;;
13349;SDS011;6744;53.190;6.576;2023-11-19T06:55:55;22.87;;;4.87;;
13349;SDS011;6744;53.190;6.576;2023-11-19T06:58:21;23.13;;;4.80;;
13349;SDS011;6744;53.190;6.576;2023-11-19T07:00:47;24.93;;;4.97;;
13349;SDS011;6744;53.190;6.576;2023-11-19T07:03:14;17.07;;;4.53;;
13349;SDS011;6744;53.190;6.576;2023-11-19T07:05:40;27.97;;;5.20;;
13349;SDS011;6744;53.190;6.576;2023-11-19T07:08:06;21.93;;;5.07;;
13349;SDS011;6744;53.190;6.576;2023-11-19T07:10:32;22.30;;;4.77;;
13349;SDS011;6744;53.190;6.576;2023-11-19T07:12:58;21.33;;;4.63;;
13349;SDS011;6744;53.190;6.576;2023-11-19T07:15:24;23.20;;;5.10;;
13349;SDS011;6744;53.190;6.576;2023-11-19T07:17:49;18.40;;;4.70;;
13349;SDS011;6744;53.190;6.576;2023-11-19T07:20:15;24.53;;;5.37;;
13349;SDS011;6744;53.190;6.576;2023-11-19T07:22:43;24.87;;;5.30;;
13349;SDS011;6744;53.190;6.576;2023-11-19T07:25:10;21.40;;;4.90;;
13349;SDS011;6744;53.190;6.576;2023-11-19T07:27:37;25.70;;;4.83;;
13349;SDS011;6744;53.190;6.576;2023-11-19T07:30:03;22.67;;;4.67;;
13349;SDS011;6744;53.190;6.576;2023-11-19T07:32:30;22.97;;;4.77;;
13349;SDS011;6744;53.190;6.576;2023-11-19T07:34:55;25.27;;;4.83;;
13349;SDS011;6744;53.190;6.576;2023-11-19T07:37:21;20.70;;;5.97;;
13349;SDS011;6744;53.190;6.576;2023-11-19T07:39:47;17.57;;;4.33;;
13349;SDS011;6744;53.190;6.576;2023-11-19T07:42:12;19.63;;;4.80;;
13349;SDS011;6744;53.190;6.576;2023-11-19T07:44:38;22.10;;;4.73;;
13349;SDS011;6744;53.190;6.576;2023-11-19T07:47:03;20.07;;;4.53;;
13349;SDS011;6744;53.190;6.576;2023-11-19T07:49:29;29.10;;;4.60;;
13349;SDS011;6744;53.190;6.576;2023-11-19T07:51:55;27.30;;;5.23;;
13349;SDS011;6744;53.190;6.576;2023-11-19T07:54:21;19.67;;;4.87;;
13349;SDS011;6744;53.190;6.576;2023-11-19T07:56:46;18.80;;;4.23;;
13349;SDS011;6744;53.190;6.576;2023-11-19T07:59:12;20.70;;;5.17;;
13349;SDS011;6744;53.190;6.576;2023-11-19T08:01:37;24.60;;;5.40;;
13349;SDS011;6744;53.190;6.576;2023-11-19T08:04:02;26.10;;;4.60;;
13349;SDS011;6744;53.190;6.576;2023-11-19T08:06:28;17.17;;;4.73;;
13349;SDS011;6744;53.190;6.576;2023-11-19T08:08:53;22.73;;;5.07;;
13349;SDS011;6744;53.190;6.576;2023-11-19T08:11:19;26.13;;;5.63;;
13349;SDS011;6744;53.190;6.576;2023-11-19T08:13:47;25.20;;;4.80;;
13349;SDS011;6744;53.190;6.576;2023-11-19T08:16:12;18.60;;;4.40;;
13349;SDS011;6744;53.190;6.576;2023-11-19T08:18:40;20.77;;;3.70;;
13349;SDS011;6744;53.190;6.576;2023-11-19T08:21:08;20.50;;;4.23;;
13349;SDS011;6744;53.190;6.576;2023-11-19T08:23:34;21.50;;;4.13;;
13349;SDS011;6744;53.190;6.576;2023-11-19T08:25:59;23.00;;;4.77;;
13349;SDS011;6744;53.190;6.576;2023-11-19T08:28:25;24.57;;;4.87;;
13349;SDS011;6744;53.190;6.576;2023-11-19T08:30:50;19.60;;;4.40;;
13349;SDS011;6744;53.190;6.576;2023-11-19T08:33:15;23.13;;;4.60;;
13349;SDS011;6744;53.190;6.576;2023-11-19T08:35:41;18.67;;;4.60;;
13349;SDS011;6744;53.190;6.576;2023-11-19T08:38:06;22.80;;;4.20;;
13349;SDS011;6744;53.190;6.576;2023-11-19T08:40:32;19.10;;;3.80;;
13349;SDS011;6744;53.190;6.576;2023-11-19T08:42:57;19.73;;;4.17;;
13349;SDS011;6744;53.190;6.576;2023-11-19T08:45:22;18.37;;;4.50;;
13349;SDS011;6744;53.190;6.576;2023-11-19T08:47:48;23.47;;;4.80;;
13349;SDS011;6744;53.190;6.576;2023-11-19T08:50:13;22.47;;;5.03;;
13349;SDS011;6744;53.190;6.576;2023-11-19T08:52:39;21.83;;;4.60;;
13349;SDS011;6744;53.190;6.576;2023-11-19T08:55:04;20.70;;;4.27;;
13349;SDS011;6744;53.190;6.576;2023-11-19T08:57:30;20.87;;;4.90;;
13349;SDS011;6744;53.190;6.576;2023-11-19T08:59:56;17.30;;;4.03;;
13349;SDS011;6744;53.190;6.576;2023-11-19T09:02:21;21.40;;;4.77;;
13349;SDS011;6744;53.190;6.576;2023-11-19T09:04:47;19.90;;;3.83;;
13349;SDS011;6744;53.190;6.576;2023-11-19T09:07:12;23.23;;;4.37;;
13349;SDS011;6744;53.190;6.576;2023-11-19T09:09:37;21.87;;;4.90;;
13349;SDS011;6744;53.190;6.576;2023-11-19T09:12:03;26.17;;;5.10;;
13349;SDS011;6744;53.190;6.576;2023-11-19T09:14:29;18.80;;;3.93;;
13349;SDS011;6744;53.190;6.576;2023-11-19T09:16:55;18.03;;;4.13;;
13349;SDS011;6744;53.190;6.576;2023-11-19T09:19:21;28.07;;;5.93;;
13349;SDS011;6744;53.190;6.576;2023-11-19T09:21:46;21.07;;;4.83;;
13349;SDS011;6744;53.190;6.576;2023-11-19T09:24:14;20.83;;;5.00;;
13349;SDS011;6744;53.190;6.576;2023-11-19T09:26:39;20.87;;;4.47;;
13349;SDS011;6744;53.190;6.576;2023-11-19T09:29:06;21.90;;;4.40;;
13349;SDS011;6744;53.190;6.576;2023-11-19T09:31:32;23.23;;;5.10;;
13349;SDS011;6744;53.190;6.576;2023-11-19T09:33:58;21.27;;;4.10;;
13349;SDS011;6744;53.190;6.576;2023-11-19T09:36:23;18.83;;;4.70;;
13349;SDS011;6744;53.190;6.576;2023-11-19T09:38:49;22.70;;;5.97;;
13349;SDS011;6744;53.190;6.576;2023-11-19T09:41:14;20.60;;;5.00;;
13349;SDS011;6744;53.190;6.576;2023-11-19T09:43:40;21.83;;;4.03;;
13349;SDS011;6744;53.190;6.576;2023-11-19T09:46:06;18.37;;;4.07;;
13349;SDS011;6744;53.190;6.576;2023-11-19T09:48:35;17.27;;;4.00;;
13349;SDS011;6744;53.190;6.576;2023-11-19T09:51:02;18.23;;;4.23;;
13349;SDS011;6744;53.190;6.576;2023-11-19T09:53:28;20.13;;;4.27;;
13349;SDS011;6744;53.190;6.576;2023-11-19T09:55:53;16.60;;;4.70;;
13349;SDS011;6744;53.190;6.576;2023-11-19T09:58:20;18.27;;;4.37;;
13349;SDS011;6744;53.190;6.576;2023-11-19T10:00:45;17.87;;;4.33;;
13349;SDS011;6744;53.190;6.576;2023-11-19T10:03:12;26.40;;;4.70;;
13349;SDS011;6744;53.190;6.576;2023-11-19T10:05:38;20.20;;;4.03;;
13349;SDS011;6744;53.190;6.576;2023-11-19T10:08:04;22.93;;;5.37;;
13349;SDS011;6744;53.190;6.576;2023-11-19T10:10:30;29.07;;;4.67;;
13349;SDS011;6744;53.190;6.576;2023-11-19T10:12:55;17.13;;;3.80;;
13349;SDS011;6744;53.190;6.576;2023-11-19T10:15:21;21.57;;;4.90;;
13349;SDS011;6744;53.190;6.576;2023-11-19T10:17:47;21.67;;;4.67;;
13349;SDS011;6744;53.190;6.576;2023-11-19T10:20:13;19.83;;;4.20;;
13349;SDS011;6744;53.190;6.576;2023-11-19T10:22:38;19.33;;;4.70;;
13349;SDS011;6744;53.190;6.576;2023-11-19T10:25:04;17.97;;;4.00;;
13349;SDS011;6744;53.190;6.576;2023-11-19T10:27:30;18.70;;;4.37;;
13349;SDS011;6744;53.190;6.576;2023-11-19T10:29:59;19.30;;;4.40;;
13349;SDS011;6744;53.190;6.576;2023-11-19T10:32:24;24.27;;;4.13;;
13349;SDS011;6744;53.190;6.576;2023-11-19T10:34:50;23.17;;;5.07;;
13349;SDS011;6744;53.190;6.576;2023-11-19T10:37:27;19.07;;;4.00;;
13349;SDS011;6744;53.190;6.576;2023-11-19T10:39:57;16.27;;;3.90;;
13349;SDS011;6744;53.190;6.576;2023-11-19T10:42:22;20.77;;;4.43;;
13349;SDS011;6744;53.190;6.576;2023-11-19T10:44:48;20.40;;;4.10;;
13349;SDS011;6744;53.190;6.576;2023-11-19T10:47:14;22.07;;;4.40;;
13349;SDS011;6744;53.190;6.576;2023-11-19T10:49:40;20.57;;;4.33;;
13349;SDS011;6744;53.190;6.576;2023-11-19T10:52:05;16.53;;;3.97;;
13349;SDS011;6744;53.190;6.576;2023-11-19T10:54:33;17.73;;;3.83;;
13349;SDS011;6744;53.190;6.576;2023-11-19T10:56:59;21.47;;;4.53;;
13349;SDS011;6744;53.190;6.576;2023-11-19T10:59:28;19.57;;;4.73;;
13349;SDS011;6744;53.190;6.576;2023-11-19T11:01:55;22.33;;;4.83;;
13349;SDS011;6744;53.190;6.576;2023-11-19T11:04:25;18.60;;;4.30;;
13349;SDS011;6744;53.190;6.576;2023-11-19T11:06:53;26.37;;;5.27;;
13349;SDS011;6744;53.190;6.576;2023-11-19T11:09:20;14.80;;;3.67;;
13349;SDS011;6744;53.190;6.576;2023-11-19T11:11:49;17.37;;;3.50;;
13349;SDS011;6744;53.190;6.576;2023-11-19T11:14:15;19.70;;;3.90;;
13349;SDS011;6744;53.190;6.576;2023-11-19T11:16:44;20.30;;;3.63;;
13349;SDS011;6744;53.190;6.576;2023-11-19T11:19:11;18.07;;;3.87;;
13349;SDS011;6744;53.190;6.576;2023-11-19T11:21:38;13.93;;;3.60;;
13349;SDS011;6744;53.190;6.576;2023-11-19T11:30:01;17.73;;;3.73;;
13349;SDS011;6744;53.190;6.576;2023-11-19T11:37:50;17.13;;;4.63;;
13349;SDS011;6744;53.190;6.576;2023-11-19T11:40:21;15.87;;;3.50;;
13349;SDS011;6744;53.190;6.576;2023-11-19T11:42:48;17.37;;;3.60;;
13349;SDS011;6744;53.190;6.576;2023-11-19T11:45:15;18.27;;;3.97;;
13349;SDS011;6744;53.190;6.576;2023-11-19T11:50:11;15.90;;;3.53;;
13349;SDS011;6744;53.190;6.576;2023-11-19T11:57:50;20.10;;;4.00;;
13349;SDS011;6744;53.190;6.576;2023-11-19T12:00:22;16.83;;;4.00;;
13349;SDS011;6744;53.190;6.576;2023-11-19T12:02:52;22.70;;;4.47;;
13349;SDS011;6744;53.190;6.576;2023-11-19T12:05:17;19.40;;;4.93;;
13349;SDS011;6744;53.190;6.576;2023-11-19T12:07:44;19.23;;;4.57;;
13349;SDS011;6744;53.190;6.576;2023-11-19T12:10:24;12.33;;;3.83;;
13349;SDS011;6744;53.190;6.576;2023-11-19T12:12:49;17.53;;;3.80;;
13349;SDS011;6744;53.190;6.576;2023-11-19T12:15:17;14.73;;;3.43;;
13349;SDS011;6744;53.190;6.576;2023-11-19T12:17:48;18.23;;;3.80;;
13349;SDS011;6744;53.190;6.576;2023-11-19T12:20:14;18.70;;;4.30;;
13349;SDS011;6744;53.190;6.576;2023-11-19T12:22:42;26.30;;;4.77;;
13349;SDS011;6744;53.190;6.576;2023-11-19T12:25:09;21.10;;;4.77;;
13349;SDS011;6744;53.190;6.576;2023-11-19T12:27:56;16.30;;;3.63;;
13349;SDS011;6744;53.190;6.576;2023-11-19T12:30:21;16.23;;;4.50;;
13349;SDS011;6744;53.190;6.576;2023-11-19T12:32:48;20.87;;;4.37;;
13349;SDS011;6744;53.190;6.576;2023-11-19T12:35:14;21.47;;;4.67;;
13349;SDS011;6744;53.190;6.576;2023-11-19T12:40:26;19.20;;;4.47;;
13349;SDS011;6744;53.190;6.576;2023-11-19T12:42:52;20.60;;;4.53;;
13349;SDS011;6744;53.190;6.576;2023-11-19T12:45:21;16.40;;;4.00;;
13349;SDS011;6744;53.190;6.576;2023-11-19T12:47:48;15.83;;;3.80;;
13349;SDS011;6744;53.190;6.576;2023-11-19T12:50:14;17.80;;;3.83;;
13349;SDS011;6744;53.190;6.576;2023-11-19T12:52:42;14.70;;;3.33;;
13349;SDS011;6744;53.190;6.576;2023-11-19T12:57:55;14.40;;;3.93;;
13349;SDS011;6744;53.190;6.576;2023-11-19T13:00:24;13.73;;;3.80;;
13349;SDS011;6744;53.190;6.576;2023-11-19T13:07:59;13.10;;;3.40;;
13349;SDS011;6744;53.190;6.576;2023-11-19T13:10:25;16.60;;;3.50;;
13349;SDS011;6744;53.190;6.576;2023-11-19T13:15:30;15.17;;;3.70;;
13349;SDS011;6744;53.190;6.576;2023-11-19T13:17:57;13.90;;;3.17;;
13349;SDS011;6744;53.190;6.576;2023-11-19T13:20:22;16.93;;;3.73;;
13349;SDS011;6744;53.190;6.576;2023-11-19T13:22:54;13.77;;;3.27;;
13349;SDS011;6744;53.190;6.576;2023-11-19T13:25:23;21.10;;;4.47;;
13349;SDS011;6744;53.190;6.576;2023-11-19T13:27:49;13.33;;;3.60;;
13349;SDS011;6744;53.190;6.576;2023-11-19T13:30:14;15.93;;;4.00;;
13349;SDS011;6744;53.190;6.576;2023-11-19T13:32:40;16.33;;;3.47;;
13349;SDS011;6744;53.190;6.576;2023-11-19T13:35:05;12.97;;;3.83;;
13349;SDS011;6744;53.190;6.576;2023-11-19T13:37:33;21.57;;;3.67;;
13349;SDS011;6744;53.190;6.576;2023-11-19T13:39:59;19.37;;;4.13;;
13349;SDS011;6744;53.190;6.576;2023-11-19T13:42:24;15.93;;;3.40;;
13349;SDS011;6744;53.190;6.576;2023-11-19T13:44:49;15.43;;;3.60;;
13349;SDS011;6744;53.190;6.576;2023-11-19T13:47:15;15.67;;;3.50;;
13349;SDS011;6744;53.190;6.576;2023-11-19T13:49:40;16.30;;;3.33;;
13349;SDS011;6744;53.190;6.576;2023-11-19T13:52:05;15.77;;;3.50;;
13349;SDS011;6744;53.190;6.576;2023-11-19T13:54:31;18.73;;;3.67;;
13349;SDS011;6744;53.190;6.576;2023-11-19T13:56:56;17.33;;;3.90;;
13349;SDS011;6744;53.190;6.576;2023-11-19T13:59:25;14.10;;;3.70;;
13349;SDS011;6744;53.190;6.576;2023-11-19T14:01:52;14.20;;;3.83;;
13349;SDS011;6744;53.190;6.576;2023-11-19T14:04:17;15.60;;;4.03;;
13349;SDS011;6744;53.190;6.576;2023-11-19T14:06:44;15.37;;;3.60;;
13349;SDS011;6744;53.190;6.576;2023-11-19T14:09:10;15.77;;;3.43;;
13349;SDS011;6744;53.190;6.576;2023-11-19T14:11:35;16.43;;;3.33;;
13349;SDS011;6744;53.190;6.576;2023-11-19T14:14:00;19.20;;;3.73;;
13349;SDS011;6744;53.190;6.576;2023-11-19T14:16:26;18.97;;;3.80;;
13349;SDS011;6744;53.190;6.576;2023-11-19T14:18:52;16.67;;;3.97;;
13349;SDS011;6744;53.190;6.576;2023-11-19T14:21:18;15.83;;;3.50;;
13349;SDS011;6744;53.190;6.576;2023-11-19T14:23:43;15.70;;;3.70;;
13349;SDS011;6744;53.190;6.576;2023-11-19T14:26:08;16.97;;;3.87;;
13349;SDS011;6744;53.190;6.576;2023-11-19T14:28:34;14.97;;;3.37;;
13349;SDS011;6744;53.190;6.576;2023-11-19T14:30:59;15.43;;;3.60;;
13349;SDS011;6744;53.190;6.576;2023-11-19T14:33:24;13.77;;;3.33;;
13349;SDS011;6744;53.190;6.576;2023-11-19T14:35:50;16.93;;;3.70;;
13349;SDS011;6744;53.190;6.576;2023-11-19T14:38:15;13.23;;;3.47;;
13349;SDS011;6744;53.190;6.576;2023-11-19T14:40:41;14.17;;;3.70;;
13349;SDS011;6744;53.190;6.576;2023-11-19T14:43:07;17.57;;;4.13;;
13349;SDS011;6744;53.190;6.576;2023-11-19T14:45:35;16.37;;;3.40;;
13349;SDS011;6744;53.190;6.576;2023-11-19T14:48:00;16.67;;;3.23;;
13349;SDS011;6744;53.190;6.576;2023-11-19T14:50:26;16.50;;;3.50;;
13349;SDS011;6744;53.190;6.576;2023-11-19T14:52:51;18.53;;;3.40;;
13349;SDS011;6744;53.190;6.576;2023-11-19T14:55:16;15.93;;;3.40;;
13349;SDS011;6744;53.190;6.576;2023-11-19T14:57:42;12.07;;;2.97;;
13349;SDS011;6744;53.190;6.576;2023-11-19T15:00:09;12.47;;;3.43;;
13349;SDS011;6744;53.190;6.576;2023-11-19T15:02:38;16.23;;;4.07;;
13349;SDS011;6744;53.190;6.576;2023-11-19T15:05:05;13.47;;;3.10;;
13349;SDS011;6744;53.190;6.576;2023-11-19T15:07:31;13.20;;;3.50;;
13349;SDS011;6744;53.190;6.576;2023-11-19T15:09:57;11.60;;;3.20;;
13349;SDS011;6744;53.190;6.576;2023-11-19T15:12:22;15.67;;;3.97;;
13349;SDS011;6744;53.190;6.576;2023-11-19T15:14:48;12.87;;;3.13;;
13349;SDS011;6744;53.190;6.576;2023-11-19T15:17:13;16.20;;;3.33;;